sensor_id;sensor_type;location;lat;lon;timestamp;pressure;altitude;pressure_sealevel;temperature;humidity
13968;BME280;39536;52.198;9.920;2023-04-05T00:01:52;101619.06;;;3.21;100.00
13968;BME280;39536;52.198;9.920;2023-04-05T00:04:19;101616.41;;;3.15;100.00
13968;BME280;39536;52.198;9.920;2023-04-05T00:06:47;101619.84;;;3.17;100.00
13968;BME280;39536;52.198;9.920;2023-04-05T00:09:17;101615.56;;;3.16;100.00
13968;BME280;39536;52.198;9.920;2023-04-05T00:11:44;101612.16;;;3.20;100.00
13968;BME280;39536;52.198;9.920;2023-04-05T00:14:11;101613.03;;;3.20;100.00
13968;BME280;39536;52.198;9.920;2023-04-05T00:16:38;101606.13;;;3.16;100.00
13968;BME280;39536;52.198;9.920;2023-04-05T00:19:05;101610.28;;;3.08;100.00
13968;BME280;39536;52.198;9.920;2023-04-05T00:21:32;101613.72;;;3.09;100.00
13968;BME280;39536;52.198;9.920;2023-04-05T00:23:59;101617.78;;;2.96;100.00
13968;BME280;39536;52.198;9.920;2023-04-05T00:26:27;101615.25;;;2.99;100.00
13968;BME280;39536;52.198;9.920;2023-04-05T00:28:54;101622.03;;;2.92;100.00
13968;BME280;39536;52.198;9.920;2023-04-05T00:31:20;101626.97;;;2.80;100.00
13968;BME280;39536;52.198;9.920;2023-04-05T00:33:47;101622.19;;;2.51;100.00
13968;BME280;39536;52.198;9.920;2023-04-05T00:36:16;101619.84;;;2.64;100.00
13968;BME280;39536;52.198;9.920;2023-04-05T00:38:44;101615.97;;;2.39;100.00
13968;BME280;39536;52.198;9.920;2023-04-05T00:41:12;101621.06;;;2.36;100.00
13968;BME280;39536;52.198;9.920;2023-04-05T00:43:39;101628.41;;;2.17;100.00
13968;BME280;39536;52.198;9.920;2023-04-05T00:46:06;101629.25;;;2.16;100.00
13968;BME280;39536;52.198;9.920;2023-04-05T00:48:33;101628.47;;;2.20;100.00
13968;BME280;39536;52.198;9.920;2023-04-05T00:51:01;101631.16;;;2.25;100.00
13968;BME280;39536;52.198;9.920;2023-04-05T00:53:29;101624.06;;;2.13;100.00
13968;BME280;39536;52.198;9.920;2023-04-05T00:55:56;101618.13;;;2.16;100.00
13968;BME280;39536;52.198;9.920;2023-04-05T00:58:24;101625.16;;;2.24;100.00
13968;BME280;39536;52.198;9.920;2023-04-05T01:00:59;101621.78;;;2.30;100.00
13968;BME280;39536;52.198;9.920;2023-04-05T01:03:28;101607.22;;;2.29;100.00
13968;BME280;39536;52.198;9.920;2023-04-05T01:06:04;101609.97;;;2.38;100.00
13968;BME280;39536;52.198;9.920;2023-04-05T01:08:44;101611.56;;;2.33;100.00
13968;BME280;39536;52.198;9.920;2023-04-05T01:11:14;101618.41;;;2.33;100.00
13968;BME280;39536;52.198;9.920;2023-04-05T01:13:44;101623.25;;;2.16;100.00
13968;BME280;39536;52.198;9.920;2023-04-05T01:16:11;101624.84;;;2.09;100.00
13968;BME280;39536;52.198;9.920;2023-04-05T01:18:37;101623.03;;;2.05;100.00
13968;BME280;39536;52.198;9.920;2023-04-05T01:21:22;101621.31;;;2.04;100.00
13968;BME280;39536;52.198;9.920;2023-04-05T01:24:05;101620.41;;;2.02;100.00
13968;BME280;39536;52.198;9.920;2023-04-05T01:26:59;101622.09;;;2.01;100.00
13968;BME280;39536;52.198;9.920;2023-04-05T01:29:46;101613.56;;;2.02;100.00
13968;BME280;39536;52.198;9.920;2023-04-05T01:32:23;101611.03;;;2.04;100.00
13968;BME280;39536;52.198;9.920;2023-04-05T01:34:56;101609.25;;;2.00;100.00
13968;BME280;39536;52.198;9.920;2023-04-05T01:37:30;101607.50;;;1.99;100.00
13968;BME280;39536;52.198;9.920;2023-04-05T01:39:58;101616.22;;;2.07;100.00
13968;BME280;39536;52.198;9.920;2023-04-05T01:42:25;101603.34;;;2.05;100.00
13968;BME280;39536;52.198;9.920;2023-04-05T01:44:55;101594.63;;;1.99;100.00
13968;BME280;39536;52.198;9.920;2023-04-05T01:47:21;101597.97;;;1.93;100.00
13968;BME280;39536;52.198;9.920;2023-04-05T01:49:48;101598.06;;;1.99;100.00
13968;BME280;39536;52.198;9.920;2023-04-05T01:52:14;101598.03;;;1.96;100.00
13968;BME280;39536;52.198;9.920;2023-04-05T01:54:41;101593.75;;;1.97;100.00
13968;BME280;39536;52.198;9.920;2023-04-05T01:57:08;101598.78;;;1.92;100.00
13968;BME280;39536;52.198;9.920;2023-04-05T01:59:34;101592.84;;;1.93;100.00
13968;BME280;39536;52.198;9.920;2023-04-05T02:02:02;101595.19;;;1.82;100.00
13968;BME280;39536;52.198;9.920;2023-04-05T02:04:28;101590.72;;;1.74;100.00
13968;BME280;39536;52.198;9.920;2023-04-05T02:06:55;101591.63;;;1.77;100.00
13968;BME280;39536;52.198;9.920;2023-04-05T02:09:21;101595.13;;;1.79;100.00
13968;BME280;39536;52.198;9.920;2023-04-05T02:11:48;101595.06;;;1.76;100.00
13968;BME280;39536;52.198;9.920;2023-04-05T02:14:14;101602.81;;;1.78;100.00
13968;BME280;39536;52.198;9.920;2023-04-05T02:16:41;101594.28;;;1.80;100.00
13968;BME280;39536;52.198;9.920;2023-04-05T02:19:10;101593.34;;;1.75;100.00
13968;BME280;39536;52.198;9.920;2023-04-05T02:21:37;101601.06;;;1.77;100.00
13968;BME280;39536;52.198;9.920;2023-04-05T02:24:05;101602.69;;;1.72;100.00
13968;BME280;39536;52.198;9.920;2023-04-05T02:26:31;101598.28;;;1.68;100.00
13968;BME280;39536;52.198;9.920;2023-04-05T02:28:58;101598.09;;;1.57;100.00
13968;BME280;39536;52.198;9.920;2023-04-05T02:31:24;101597.53;;;1.31;100.00
13968;BME280;39536;52.198;9.920;2023-04-05T02:33:50;101599.59;;;1.47;100.00
13968;BME280;39536;52.198;9.920;2023-04-05T02:36:19;101596.88;;;1.41;100.00
13968;BME280;39536;52.198;9.920;2023-04-05T02:38:46;101592.47;;;1.35;100.00
13968;BME280;39536;52.198;9.920;2023-04-05T02:41:12;101586.47;;;1.35;100.00
13968;BME280;39536;52.198;9.920;2023-04-05T02:43:39;101589.19;;;1.41;100.00
13968;BME280;39536;52.198;9.920;2023-04-05T02:46:05;101592.63;;;1.43;100.00
13968;BME280;39536;52.198;9.920;2023-04-05T02:48:31;101588.41;;;1.44;100.00
13968;BME280;39536;52.198;9.920;2023-04-05T02:50:58;101586.69;;;1.44;100.00
13968;BME280;39536;52.198;9.920;2023-04-05T02:53:26;101589.06;;;1.36;100.00
13968;BME280;39536;52.198;9.920;2023-04-05T02:55:52;101585.78;;;1.42;100.00
13968;BME280;39536;52.198;9.920;2023-04-05T02:58:19;101584.78;;;1.37;100.00
13968;BME280;39536;52.198;9.920;2023-04-05T03:00:46;101586.56;;;1.39;100.00
13968;BME280;39536;52.198;9.920;2023-04-05T03:03:16;101586.50;;;1.36;100.00
13968;BME280;39536;52.198;9.920;2023-04-05T03:05:43;101585.56;;;1.33;100.00
13968;BME280;39536;52.198;9.920;2023-04-05T03:08:09;101584.00;;;1.38;100.00
13968;BME280;39536;52.198;9.920;2023-04-05T03:10:44;101583.00;;;1.33;100.00
13968;BME280;39536;52.198;9.920;2023-04-05T03:13:10;101574.47;;;1.34;100.00
13968;BME280;39536;52.198;9.920;2023-04-05T03:15:37;101567.53;;;1.28;100.00
13968;BME280;39536;52.198;9.920;2023-04-05T03:18:04;101564.03;;;1.26;100.00
13968;BME280;39536;52.198;9.920;2023-04-05T03:20:30;101565.69;;;1.23;100.00
13968;BME280;39536;52.198;9.920;2023-04-05T03:22:58;101560.53;;;1.23;100.00
13968;BME280;39536;52.198;9.920;2023-04-05T03:25:24;101557.06;;;1.21;100.00
13968;BME280;39536;52.198;9.920;2023-04-05T03:27:53;101556.00;;;1.11;100.00
13968;BME280;39536;52.198;9.920;2023-04-05T03:30:20;101542.25;;;1.07;100.00
13968;BME280;39536;52.198;9.920;2023-04-05T03:32:46;101550.09;;;1.15;100.00
13968;BME280;39536;52.198;9.920;2023-04-05T03:35:13;101550.09;;;1.15;100.00
13968;BME280;39536;52.198;9.920;2023-04-05T03:37:40;101556.94;;;1.14;100.00
13968;BME280;39536;52.198;9.920;2023-04-05T03:40:08;101548.38;;;1.14;100.00
13968;BME280;39536;52.198;9.920;2023-04-05T03:42:34;101549.88;;;1.04;100.00
13968;BME280;39536;52.198;9.920;2023-04-05T03:45:03;101555.91;;;1.06;100.00
13968;BME280;39536;52.198;9.920;2023-04-05T03:47:30;101556.72;;;1.05;100.00
13968;BME280;39536;52.198;9.920;2023-04-05T03:49:56;101551.50;;;1.01;100.00
13968;BME280;39536;52.198;9.920;2023-04-05T03:52:23;101549.94;;;1.07;100.00
13968;BME280;39536;52.198;9.920;2023-04-05T03:54:49;101548.97;;;1.02;100.00
13968;BME280;39536;52.198;9.920;2023-04-05T03:57:15;101557.50;;;1.01;100.00
13968;BME280;39536;52.198;9.920;2023-04-05T03:59:42;101553.84;;;0.91;100.00
13968;BME280;39536;52.198;9.920;2023-04-05T04:02:09;101553.06;;;0.94;100.00
13968;BME280;39536;52.198;9.920;2023-04-05T04:04:36;101552.28;;;0.97;100.00
13968;BME280;39536;52.198;9.920;2023-04-05T04:07:02;101552.28;;;0.98;100.00
13968;BME280;39536;52.198;9.920;2023-04-05T04:09:29;101548.78;;;0.95;100.00
13968;BME280;39536;52.198;9.920;2023-04-05T04:11:55;101557.34;;;0.95;100.00
13968;BME280;39536;52.198;9.920;2023-04-05T04:14:22;101552.09;;;0.89;100.00
13968;BME280;39536;52.198;9.920;2023-04-05T04:16:49;101550.22;;;0.83;100.00
13968;BME280;39536;52.198;9.920;2023-04-05T04:19:17;101551.63;;;0.71;100.00
13968;BME280;39536;52.198;9.920;2023-04-05T04:21:43;101557.63;;;0.69;100.00
13968;BME280;39536;52.198;9.920;2023-04-05T04:24:15;101555.91;;;0.70;100.00
13968;BME280;39536;52.198;9.920;2023-04-05T04:26:42;101554.22;;;0.71;100.00
13968;BME280;39536;52.198;9.920;2023-04-05T04:29:09;101560.03;;;0.65;100.00
13968;BME280;39536;52.198;9.920;2023-04-05T04:31:37;101559.19;;;0.64;100.00
13968;BME280;39536;52.198;9.920;2023-04-05T04:34:03;101556.59;;;0.63;100.00
13968;BME280;39536;52.198;9.920;2023-04-05T04:36:31;101566.06;;;0.65;100.00
13968;BME280;39536;52.198;9.920;2023-04-05T04:39:01;101559.19;;;0.64;100.00
13968;BME280;39536;52.198;9.920;2023-04-05T04:41:30;101564.22;;;0.60;100.00
13968;BME280;39536;52.198;9.920;2023-04-05T04:43:58;101559.94;;;0.60;100.00
13968;BME280;39536;52.198;9.920;2023-04-05T04:46:27;101557.47;;;0.63;100.00
13968;BME280;39536;52.198;9.920;2023-04-05T04:48:55;101564.38;;;0.66;100.00
13968;BME280;39536;52.198;9.920;2023-04-05T04:51:22;101560.03;;;0.65;100.00
13968;BME280;39536;52.198;9.920;2023-04-05T04:53:50;101562.66;;;0.66;100.00
13968;BME280;39536;52.198;9.920;2023-04-05T04:56:16;101565.44;;;0.76;100.00
13968;BME280;39536;52.198;9.920;2023-04-05T04:58:43;101566.25;;;0.75;100.00
13968;BME280;39536;52.198;9.920;2023-04-05T05:01:16;101564.47;;;0.71;100.00
13968;BME280;39536;52.198;9.920;2023-04-05T05:03:43;101570.59;;;0.76;100.00
13968;BME280;39536;52.198;9.920;2023-04-05T05:06:09;101569.09;;;0.85;100.00
13968;BME280;39536;52.198;9.920;2023-04-05T05:08:36;101566.53;;;0.85;100.00
13968;BME280;39536;52.198;9.920;2023-04-05T05:11:06;101571.59;;;0.82;100.00
13968;BME280;39536;52.198;9.920;2023-04-05T05:13:33;101564.13;;;0.91;100.00
13968;BME280;39536;52.198;9.920;2023-04-05T05:16:02;101568.19;;;0.83;100.00
13968;BME280;39536;52.198;9.920;2023-04-05T05:18:29;101567.47;;;0.89;100.00
13968;BME280;39536;52.198;9.920;2023-04-05T05:20:56;101570.91;;;0.89;100.00
13968;BME280;39536;52.198;9.920;2023-04-05T05:23:51;101575.06;;;0.84;100.00
13968;BME280;39536;52.198;9.920;2023-04-05T05:26:19;101572.66;;;0.90;100.00
13968;BME280;39536;52.198;9.920;2023-04-05T05:28:46;101565.63;;;0.83;100.00
13968;BME280;39536;52.198;9.920;2023-04-05T05:31:14;101567.66;;;0.97;100.00
13968;BME280;39536;52.198;9.920;2023-04-05T05:33:41;101560.69;;;0.91;100.00
13968;BME280;39536;52.198;9.920;2023-04-05T05:36:10;101565.06;;;0.95;100.00
13968;BME280;39536;52.198;9.920;2023-04-05T05:38:37;101571.31;;;1.06;100.00
13968;BME280;39536;52.198;9.920;2023-04-05T05:41:04;101561.00;;;1.05;100.00
13968;BME280;39536;52.198;9.920;2023-04-05T05:43:31;101560.19;;;1.07;100.00
13968;BME280;39536;52.198;9.920;2023-04-05T05:45:59;101561.25;;;1.15;100.00
13968;BME280;39536;52.198;9.920;2023-04-05T05:48:25;101564.09;;;1.28;100.00
13968;BME280;39536;52.198;9.920;2023-04-05T05:50:52;101565.25;;;1.42;100.00
13968;BME280;39536;52.198;9.920;2023-04-05T05:53:18;101556.81;;;1.48;100.00
13968;BME280;39536;52.198;9.920;2023-04-05T05:55:45;101559.66;;;1.61;100.00
13968;BME280;39536;52.198;9.920;2023-04-05T05:58:11;101564.78;;;1.61;100.00
13968;BME280;39536;52.198;9.920;2023-04-05T06:00:39;101558.06;;;1.67;100.00
13968;BME280;39536;52.198;9.920;2023-04-05T06:03:06;101558.78;;;1.61;100.00
13968;BME280;39536;52.198;9.920;2023-04-05T06:05:34;101563.13;;;1.65;100.00
13968;BME280;39536;52.198;9.920;2023-04-05T06:08:00;101565.63;;;1.60;100.00
13968;BME280;39536;52.198;9.920;2023-04-05T06:10:28;101563.19;;;1.68;100.00
13968;BME280;39536;52.198;9.920;2023-04-05T06:12:54;101560.03;;;1.80;100.00
13968;BME280;39536;52.198;9.920;2023-04-05T06:15:20;101556.59;;;1.79;100.00
13968;BME280;39536;52.198;9.920;2023-04-05T06:17:48;101553.34;;;1.88;100.00
13968;BME280;39536;52.198;9.920;2023-04-05T06:20:15;101562.84;;;1.92;100.00
13968;BME280;39536;52.198;9.920;2023-04-05T06:22:43;101551.88;;;2.02;100.00
13968;BME280;39536;52.198;9.920;2023-04-05T06:25:09;101558.44;;;1.87;100.00
13968;BME280;39536;52.198;9.920;2023-04-05T06:27:37;101558.44;;;1.87;100.00
13968;BME280;39536;52.198;9.920;2023-04-05T06:30:04;101557.75;;;1.95;100.00
13968;BME280;39536;52.198;9.920;2023-04-05T06:32:31;101564.66;;;1.99;100.00
13968;BME280;39536;52.198;9.920;2023-04-05T06:34:59;101552.91;;;2.11;100.00
13968;BME280;39536;52.198;9.920;2023-04-05T06:37:29;101556.56;;;2.23;100.00
13968;BME280;39536;52.198;9.920;2023-04-05T06:39:55;101551.25;;;2.13;100.00
13968;BME280;39536;52.198;9.920;2023-04-05T06:42:22;101557.47;;;2.27;100.00
13968;BME280;39536;52.198;9.920;2023-04-05T06:44:49;101544.72;;;2.31;100.00
13968;BME280;39536;52.198;9.920;2023-04-05T06:47:15;101541.50;;;2.45;100.00
13968;BME280;39536;52.198;9.920;2023-04-05T06:49:42;101546.84;;;2.56;100.00
13968;BME280;39536;52.198;9.920;2023-04-05T06:52:09;101540.00;;;2.58;100.00
13968;BME280;39536;52.198;9.920;2023-04-05T06:54:36;101546.06;;;2.60;100.00
13968;BME280;39536;52.198;9.920;2023-04-05T06:57:04;101543.78;;;2.80;100.00
13968;BME280;39536;52.198;9.920;2023-04-05T06:59:30;101547.41;;;2.92;100.00
13968;BME280;39536;52.198;9.920;2023-04-05T07:01:57;101550.16;;;3.03;100.00
13968;BME280;39536;52.198;9.920;2023-04-05T07:04:23;101548.41;;;3.00;100.00
13968;BME280;39536;52.198;9.920;2023-04-05T07:06:50;101547.81;;;3.18;100.00
13968;BME280;39536;52.198;9.920;2023-04-05T07:09:20;101544.53;;;3.32;100.00
13968;BME280;39536;52.198;9.920;2023-04-05T07:11:49;101553.09;;;3.29;100.00
13968;BME280;39536;52.198;9.920;2023-04-05T07:14:15;101547.91;;;3.26;100.00
13968;BME280;39536;52.198;9.920;2023-04-05T07:16:42;101547.06;;;3.29;100.00
13968;BME280;39536;52.198;9.920;2023-04-05T07:19:08;101543.69;;;3.33;100.00
13968;BME280;39536;52.198;9.920;2023-04-05T07:21:35;101542.88;;;3.34;100.00
13968;BME280;39536;52.198;9.920;2023-04-05T07:24:04;101542.31;;;3.61;100.00
13968;BME280;39536;52.198;9.920;2023-04-05T07:26:32;101529.63;;;3.75;100.00
13968;BME280;39536;52.198;9.920;2023-04-05T07:29:00;101533.88;;;3.73;100.00
13968;BME280;39536;52.198;9.920;2023-04-05T07:31:26;101542.47;;;3.72;100.00
13968;BME280;39536;52.198;9.920;2023-04-05T07:33:53;101535.47;;;3.60;100.00
13968;BME280;39536;52.198;9.920;2023-04-05T07:36:19;101527.88;;;3.74;100.00
13968;BME280;39536;52.198;9.920;2023-04-05T07:38:46;101534.13;;;3.92;100.00
13968;BME280;39536;52.198;9.920;2023-04-05T07:41:12;101527.09;;;3.78;100.00
13968;BME280;39536;52.198;9.920;2023-04-05T07:43:54;101528.00;;;3.84;100.00
13968;BME280;39536;52.198;9.920;2023-04-05T07:46:20;101520.34;;;3.90;100.00
13968;BME280;39536;52.198;9.920;2023-04-05T07:48:47;101521.38;;;4.06;100.00
13968;BME280;39536;52.198;9.920;2023-04-05T07:51:14;101519.78;;;4.18;100.00
13968;BME280;39536;52.198;9.920;2023-04-05T07:53:40;101515.53;;;4.26;100.00
13968;BME280;39536;52.198;9.920;2023-04-05T07:56:09;101520.88;;;4.47;100.00
13968;BME280;39536;52.198;9.920;2023-04-05T07:58:37;101524.44;;;4.63;100.00
13968;BME280;39536;52.198;9.920;2023-04-05T08:01:07;101528.75;;;4.64;100.00
13968;BME280;39536;52.198;9.920;2023-04-05T08:03:35;101527.97;;;4.71;100.00
13968;BME280;39536;52.198;9.920;2023-04-05T08:06:10;101532.31;;;4.77;100.00
13968;BME280;39536;52.198;9.920;2023-04-05T08:08:36;101533.22;;;4.86;100.00
13968;BME280;39536;52.198;9.920;2023-04-05T08:11:03;101532.53;;;5.15;100.00
13968;BME280;39536;52.198;9.920;2023-04-05T08:13:30;101542.13;;;5.35;100.00
13968;BME280;39536;52.198;9.920;2023-04-05T08:15:59;101536.19;;;5.55;100.00
13968;BME280;39536;52.198;9.920;2023-04-05T08:18:29;101538.81;;;5.69;100.00
13968;BME280;39536;52.198;9.920;2023-04-05T08:20:56;101534.53;;;5.74;100.00
13968;BME280;39536;52.198;9.920;2023-04-05T08:23:23;101535.44;;;5.87;100.00
13968;BME280;39536;52.198;9.920;2023-04-05T08:25:49;101524.22;;;5.87;100.00
13968;BME280;39536;52.198;9.920;2023-04-05T08:28:16;101529.38;;;5.82;100.00
13968;BME280;39536;52.198;9.920;2023-04-05T08:30:43;101529.34;;;5.76;100.00
13968;BME280;39536;52.198;9.920;2023-04-05T08:33:10;101525.97;;;5.91;100.00
13968;BME280;39536;52.198;9.920;2023-04-05T08:35:38;101526.00;;;6.00;100.00
13968;BME280;39536;52.198;9.920;2023-04-05T08:38:06;101521.72;;;6.10;98.24
13968;BME280;39536;52.198;9.920;2023-04-05T08:40:38;101524.31;;;6.10;96.72
13968;BME280;39536;52.198;9.920;2023-04-05T08:43:09;101521.75;;;6.27;92.76
13968;BME280;39536;52.198;9.920;2023-04-05T08:45:50;101519.19;;;6.39;90.09
13968;BME280;39536;52.198;9.920;2023-04-05T08:48:19;101518.31;;;6.47;88.26
13968;BME280;39536;52.198;9.920;2023-04-05T08:50:51;101512.25;;;6.65;89.68
13968;BME280;39536;52.198;9.920;2023-04-05T08:53:23;101513.13;;;6.80;86.51
13968;BME280;39536;52.198;9.920;2023-04-05T08:55:54;101510.53;;;6.83;82.25
13968;BME280;39536;52.198;9.920;2023-04-05T08:58:22;101504.44;;;7.02;81.78
13968;BME280;39536;52.198;9.920;2023-04-05T09:00:49;101507.00;;;7.14;80.46
13968;BME280;39536;52.198;9.920;2023-04-05T09:03:20;101506.13;;;7.15;75.41
13968;BME280;39536;52.198;9.920;2023-04-05T09:05:50;101508.69;;;7.25;75.61
13968;BME280;39536;52.198;9.920;2023-04-05T09:08:17;101512.09;;;7.40;79.80
13968;BME280;39536;52.198;9.920;2023-04-05T09:10:48;101506.88;;;7.48;74.97
13968;BME280;39536;52.198;9.920;2023-04-05T09:13:15;101510.22;;;7.72;75.99
13968;BME280;39536;52.198;9.920;2023-04-05T09:15:42;101505.03;;;7.75;66.44
13968;BME280;39536;52.198;9.920;2023-04-05T09:18:09;101499.00;;;7.73;62.00
13968;BME280;39536;52.198;9.920;2023-04-05T09:20:36;101505.16;;;7.47;64.77
13968;BME280;39536;52.198;9.920;2023-04-05T09:23:04;101508.59;;;7.49;67.00
13968;BME280;39536;52.198;9.920;2023-04-05T09:25:35;101497.41;;;7.38;66.12
13968;BME280;39536;52.198;9.920;2023-04-05T09:28:04;101500.94;;;7.26;63.54
13968;BME280;39536;52.198;9.920;2023-04-05T09:30:31;101499.25;;;7.04;64.11
13968;BME280;39536;52.198;9.920;2023-04-05T09:32:58;101502.75;;;6.87;67.48
13968;BME280;39536;52.198;9.920;2023-04-05T09:35:26;101503.63;;;6.80;64.31
13968;BME280;39536;52.198;9.920;2023-04-05T09:37:55;101504.50;;;6.76;61.50
13968;BME280;39536;52.198;9.920;2023-04-05T09:40:24;101506.19;;;6.91;59.58
13968;BME280;39536;52.198;9.920;2023-04-05T09:43:05;101496.66;;;7.04;61.11
13968;BME280;39536;52.198;9.920;2023-04-05T09:45:37;101501.81;;;7.10;59.48
13968;BME280;39536;52.198;9.920;2023-04-05T09:48:04;101496.59;;;7.22;58.97
13968;BME280;39536;52.198;9.920;2023-04-05T09:50:30;101496.59;;;7.30;56.26
13968;BME280;39536;52.198;9.920;2023-04-05T09:53:08;101495.72;;;7.32;57.02
13968;BME280;39536;52.198;9.920;2023-04-05T09:55:41;101489.69;;;7.23;56.83
13968;BME280;39536;52.198;9.920;2023-04-05T09:58:10;101494.00;;;7.30;58.53
13968;BME280;39536;52.198;9.920;2023-04-05T10:00:37;101489.63;;;7.46;57.79
13968;BME280;39536;52.198;9.920;2023-04-05T10:03:04;101486.84;;;7.79;58.01
13968;BME280;39536;52.198;9.920;2023-04-05T10:05:30;101486.69;;;8.07;54.76
13968;BME280;39536;52.198;9.920;2023-04-05T10:07:58;101479.63;;;8.26;56.76
13968;BME280;39536;52.198;9.920;2023-04-05T10:10:26;101476.78;;;8.58;56.03
13968;BME280;39536;52.198;9.920;2023-04-05T10:12:54;101474.69;;;8.92;51.47
13968;BME280;39536;52.198;9.920;2023-04-05T10:15:25;101475.25;;;9.19;51.16
13968;BME280;39536;52.198;9.920;2023-04-05T10:17:55;101474.41;;;9.18;46.80
13968;BME280;39536;52.198;9.920;2023-04-05T10:20:27;101469.09;;;9.29;50.77
13968;BME280;39536;52.198;9.920;2023-04-05T10:22:59;101461.84;;;9.54;49.62
13968;BME280;39536;52.198;9.920;2023-04-05T10:25:32;101456.25;;;9.82;48.60
13968;BME280;39536;52.198;9.920;2023-04-05T10:28:07;101452.53;;;9.97;45.75
13968;BME280;39536;52.198;9.920;2023-04-05T10:30:39;101449.81;;;10.04;45.90
13968;BME280;39536;52.198;9.920;2023-04-05T10:33:15;101460.06;;;9.56;45.35
13968;BME280;39536;52.198;9.920;2023-04-05T10:35:54;101452.63;;;9.29;44.99
13968;BME280;39536;52.198;9.920;2023-04-05T10:38:24;101460.06;;;8.84;49.28
13968;BME280;39536;52.198;9.920;2023-04-05T10:40:53;101454.78;;;8.93;46.84
13968;BME280;39536;52.198;9.920;2023-04-05T10:43:22;101446.94;;;8.96;44.14
13968;BME280;39536;52.198;9.920;2023-04-05T10:45:52;101441.59;;;9.10;45.94
13968;BME280;39536;52.198;9.920;2023-04-05T10:48:27;101438.13;;;9.09;45.40
13968;BME280;39536;52.198;9.920;2023-04-05T10:51:00;101441.34;;;9.30;48.42
13968;BME280;39536;52.198;9.920;2023-04-05T10:53:27;101436.50;;;9.67;50.14
13968;BME280;39536;52.198;9.920;2023-04-05T10:55:56;101432.44;;;10.06;45.52
13968;BME280;39536;52.198;9.920;2023-04-05T10:58:26;101431.50;;;10.10;43.05
13968;BME280;39536;52.198;9.920;2023-04-05T11:00:53;101436.44;;;10.27;46.50
13968;BME280;39536;52.198;9.920;2023-04-05T11:03:46;101426.41;;;10.57;45.12
13968;BME280;39536;52.198;9.920;2023-04-05T11:06:23;101430.13;;;10.42;45.37
13968;BME280;39536;52.198;9.920;2023-04-05T11:08:53;101418.38;;;10.68;42.83
13968;BME280;39536;52.198;9.920;2023-04-05T11:11:21;101416.56;;;10.71;43.97
13968;BME280;39536;52.198;9.920;2023-04-05T11:13:51;101421.41;;;10.90;44.88
13968;BME280;39536;52.198;9.920;2023-04-05T11:16:18;101412.84;;;11.28;43.47
13968;BME280;39536;52.198;9.920;2023-04-05T11:18:45;101417.59;;;11.48;42.37
13968;BME280;39536;52.198;9.920;2023-04-05T11:21:19;101404.50;;;11.51;41.38
13968;BME280;39536;52.198;9.920;2023-04-05T11:24:00;101411.41;;;11.52;40.66
13968;BME280;39536;52.198;9.920;2023-04-05T11:26:32;101408.75;;;11.55;42.48
13968;BME280;39536;52.198;9.920;2023-04-05T11:29:00;101404.94;;;11.70;39.93
13968;BME280;39536;52.198;9.920;2023-04-05T11:31:26;101394.84;;;11.54;40.83
13968;BME280;39536;52.198;9.920;2023-04-05T11:33:55;101399.38;;;11.84;40.54
13968;BME280;39536;52.198;9.920;2023-04-05T11:36:36;101407.41;;;11.76;41.13
13968;BME280;39536;52.198;9.920;2023-04-05T11:39:25;101401.78;;;11.94;39.81
13968;BME280;39536;52.198;9.920;2023-04-05T11:41:54;101404.25;;;11.99;39.18
13968;BME280;39536;52.198;9.920;2023-04-05T11:44:23;101397.56;;;12.23;37.62
13968;BME280;39536;52.198;9.920;2023-04-05T11:46:50;101386.47;;;11.40;37.75
13968;BME280;39536;52.198;9.920;2023-04-05T11:49:18;101390.72;;;10.60;40.74
13968;BME280;39536;52.198;9.920;2023-04-05T11:51:47;101384.47;;;10.69;41.12
13968;BME280;39536;52.198;9.920;2023-04-05T11:54:27;101381.75;;;11.17;40.90
13968;BME280;39536;52.198;9.920;2023-04-05T11:56:53;101377.22;;;11.64;39.27
13968;BME280;39536;52.198;9.920;2023-04-05T11:59:29;101374.38;;;11.38;38.87
13968;BME280;39536;52.198;9.920;2023-04-05T12:02:00;101370.16;;;11.30;38.59
13968;BME280;39536;52.198;9.920;2023-04-05T12:04:28;101374.28;;;11.41;39.67
13968;BME280;39536;52.198;9.920;2023-04-05T12:07:11;101370.47;;;11.17;40.02
13968;BME280;39536;52.198;9.920;2023-04-05T12:09:57;101373.47;;;11.39;40.56
13968;BME280;39536;52.198;9.920;2023-04-05T12:12:24;101365.00;;;11.66;39.69
13968;BME280;39536;52.198;9.920;2023-04-05T12:14:57;101360.09;;;11.90;39.43
13968;BME280;39536;52.198;9.920;2023-04-05T12:17:36;101351.34;;;11.92;38.88
13968;BME280;39536;52.198;9.920;2023-04-05T12:20:04;101355.00;;;11.84;38.94
13968;BME280;39536;52.198;9.920;2023-04-05T12:22:31;101360.63;;;12.04;39.25
13968;BME280;39536;52.198;9.920;2023-04-05T12:24:58;101359.22;;;12.25;39.42
13968;BME280;39536;52.198;9.920;2023-04-05T12:27:25;101354.59;;;12.35;40.96
13968;BME280;39536;52.198;9.920;2023-04-05T12:30:12;101345.44;;;12.51;40.44
13968;BME280;39536;52.198;9.920;2023-04-05T12:32:46;101342.78;;;12.53;40.12
13968;BME280;39536;52.198;9.920;2023-04-05T12:35:15;101343.22;;;12.68;40.70
13968;BME280;39536;52.198;9.920;2023-04-05T12:37:43;101343.84;;;12.45;39.79
13968;BME280;39536;52.198;9.920;2023-04-05T12:40:10;101336.69;;;12.52;39.60
13968;BME280;39536;52.198;9.920;2023-04-05T12:42:38;101338.44;;;12.52;37.64
13968;BME280;39536;52.198;9.920;2023-04-05T12:45:10;101335.16;;;12.76;37.08
13968;BME280;39536;52.198;9.920;2023-04-05T12:47:47;101332.00;;;12.34;37.46
13968;BME280;39536;52.198;9.920;2023-04-05T12:50:15;101324.69;;;12.45;40.18
13968;BME280;39536;52.198;9.920;2023-04-05T12:52:52;101321.97;;;12.17;37.46
13968;BME280;39536;52.198;9.920;2023-04-05T12:55:19;101322.22;;;11.36;37.93
13968;BME280;39536;52.198;9.920;2023-04-05T12:57:49;101319.16;;;11.17;39.83
13968;BME280;39536;52.198;9.920;2023-04-05T13:00:18;101320.09;;;11.15;40.45
13968;BME280;39536;52.198;9.920;2023-04-05T13:02:49;101317.81;;;11.38;40.65